Time;durP1;ratioP1;P1;durP2;ratioP2;P2;SDS_P1;SDS_P2;PMS_P1;PMS_P2;Temp;Humidity;BMP_temperature;BMP_pressure;BME280_temperature;BME280_humidity;BME280_pressure;Samples;Min_cycle;Max_cycle;Signal;HPM_P1;HPM_P2
2021/04/04 00:00:28;;;;;;;21.67;6.40;;;3.80;99.90;;;;;;5037732;28;20198;-79
2021/04/04 00:02:54;;;;;;;14.85;5.90;;;3.70;99.90;;;;;;5035608;28;20171;-81
2021/04/04 00:05:19;;;;;;;22.87;7.40;;;3.70;99.90;;;;;;5034282;28;20201;-81
2021/04/04 00:07:45;;;;;;;19.20;6.33;;;3.70;99.90;;;;;;5035694;28;20213;-82
2021/04/04 00:10:13;;;;;;;18.83;6.33;;;3.70;99.90;;;;;;5035698;28;20178;-80
2021/04/04 00:12:39;;;;;;;16.92;6.35;;;3.60;99.90;;;;;;5034479;28;20202;-81
2021/04/04 00:15:09;;;;;;;28.67;7.80;;;3.60;99.90;;;;;;5035258;28;20170;-79
2021/04/04 00:17:35;;;;;;;23.73;6.70;;;3.60;99.90;;;;;;5035503;28;20178;-81
2021/04/04 00:20:04;;;;;;;18.43;6.60;;;3.60;99.90;;;;;;5035403;28;20178;-79
2021/04/04 00:22:29;;;;;;;17.40;7.72;;;3.60;99.90;;;;;;5035588;28;20499;-81
2021/04/04 00:24:55;;;;;;;16.17;6.30;;;3.60;99.90;;;;;;5035142;28;20265;-79
2021/04/04 00:27:20;;;;;;;20.03;6.87;;;3.50;99.90;;;;;;5035394;28;20183;-81
2021/04/04 00:29:46;;;;;;;14.50;6.23;;;3.50;99.90;;;;;;5034147;28;20201;-81
2021/04/04 00:32:12;;;;;;;22.60;7.47;;;3.50;99.90;;;;;;5034119;28;20276;-81
2021/04/04 00:34:37;;;;;;;22.10;6.63;;;3.40;99.90;;;;;;5034959;28;20217;-79
2021/04/04 00:37:03;;;;;;;33.63;10.80;;;3.40;99.90;;;;;;5035147;28;20205;-80
2021/04/04 00:39:29;;;;;;;15.10;7.53;;;3.40;99.90;;;;;;5035191;28;20171;-82
2021/04/04 00:41:54;;;;;;;21.80;6.73;;;3.30;99.90;;;;;;5033864;28;20445;-79
2021/04/04 00:44:20;;;;;;;17.83;6.97;;;3.20;99.90;;;;;;5035069;28;20267;-82
2021/04/04 00:46:46;;;;;;;12.00;6.47;;;3.20;99.90;;;;;;5034904;28;20194;-79
2021/04/04 00:49:11;;;;;;;19.03;7.13;;;3.20;99.90;;;;;;5035333;28;20178;-82
2021/04/04 00:51:37;;;;;;;27.40;7.23;;;3.10;99.90;;;;;;5034038;28;20269;-80
2021/04/04 00:54:04;;;;;;;13.10;5.67;;;3.10;99.90;;;;;;5034968;28;20210;-83
2021/04/04 00:56:30;;;;;;;22.20;6.10;;;3.20;99.90;;;;;;5034474;28;20612;-83
2021/04/04 00:58:58;;;;;;;17.67;6.65;;;3.20;99.90;;;;;;5035305;28;20174;-81
2021/04/04 01:01:27;;;;;;;22.00;5.80;;;3.30;99.90;;;;;;5034831;28;20241;-83
2021/04/04 01:03:53;;;;;;;14.80;5.88;;;3.40;99.90;;;;;;5034811;28;20175;-78
2021/04/04 01:06:19;;;;;;;17.65;7.35;;;3.40;99.90;;;;;;5034250;28;20676;-80
2021/04/04 01:08:44;;;;;;;22.17;7.50;;;3.40;99.90;;;;;;5033647;28;20277;-83
2021/04/04 01:11:15;;;;;;;18.13;6.70;;;3.50;99.90;;;;;;5034710;28;20209;-82
2021/04/04 01:13:40;;;;;;;19.48;6.53;;;3.70;99.90;;;;;;5034269;28;20655;-82
2021/04/04 01:16:09;;;;;;;20.17;5.80;;;3.80;99.90;;;;;;5034300;28;20274;-85
2021/04/04 01:18:42;;;;;;;11.75;5.40;;;3.80;99.90;;;;;;5034509;28;20197;-83
2021/04/04 01:21:19;;;;;;;16.08;6.00;;;3.80;99.90;;;;;;5033354;28;20194;-80
2021/04/04 01:24:03;;;;;;;28.63;5.95;;;3.80;99.90;;;;;;5034451;28;20181;-84
2021/04/04 01:26:53;;;;;;;16.92;5.75;;;3.90;99.90;;;;;;5032687;28;20570;-81
2021/04/04 01:29:21;;;;;;;17.25;6.25;;;4.00;99.90;;;;;;5034297;28;20236;-79
2021/04/04 01:31:50;;;;;;;15.27;5.90;;;4.00;99.90;;;;;;5016458;28;20201;-81
2021/04/04 01:34:18;;;;;;;15.55;5.85;;;3.90;99.90;;;;;;5033911;28;20201;-83
2021/04/04 01:36:45;;;;;;;17.67;6.07;;;3.90;99.90;;;;;;5032426;28;20194;-81
2021/04/04 01:39:19;;;;;;;19.85;6.22;;;3.90;99.90;;;;;;5032866;28;20177;-82
2021/04/04 01:41:45;;;;;;;16.27;5.93;;;4.00;99.90;;;;;;5034191;28;20162;-82
2021/04/04 01:44:13;;;;;;;24.75;6.32;;;4.00;99.90;;;;;;5032423;28;20667;-82
2021/04/04 01:46:41;;;;;;;18.83;5.78;;;4.00;99.90;;;;;;5033287;28;20280;-81
2021/04/04 01:49:07;;;;;;;15.48;5.93;;;4.00;99.90;;;;;;5033805;28;20189;-82
2021/04/04 01:51:34;;;;;;;14.13;5.30;;;4.00;99.90;;;;;;5033918;28;20185;-81
2021/04/04 01:54:03;;;;;;;16.08;5.20;;;4.00;99.90;;;;;;5032356;28;20606;-83
2021/04/04 01:56:30;;;;;;;26.15;6.68;;;4.10;99.90;;;;;;5033470;28;20242;-84
2021/04/04 01:58:56;;;;;;;13.55;5.32;;;4.10;99.90;;;;;;5033702;28;20178;-81
2021/04/04 02:01:22;;;;;;;21.45;5.80;;;4.00;99.90;;;;;;5033725;28;20552;-82
2021/04/04 02:03:48;;;;;;;16.03;6.10;;;4.10;99.90;;;;;;5033755;28;20174;-82
2021/04/04 02:06:18;;;;;;;21.50;5.28;;;4.10;99.90;;;;;;5032164;28;20444;-81
2021/04/04 02:08:45;;;;;;;12.43;5.90;;;4.00;99.90;;;;;;5033692;28;20185;-80
2021/04/04 02:11:16;;;;;;;19.45;7.13;;;4.00;99.90;;;;;;5033763;28;20186;-82
2021/04/04 02:13:42;;;;;;;13.23;5.38;;;4.10;99.90;;;;;;5033530;28;20197;-83
2021/04/04 02:16:09;;;;;;;22.55;7.03;;;4.20;99.90;;;;;;5031969;28;20198;-80
2021/04/04 02:18:35;;;;;;;22.98;6.15;;;4.20;99.90;;;;;;5032156;28;20580;-80
2021/04/04 02:21:03;;;;;;;16.17;6.35;;;4.10;99.90;;;;;;5032062;28;20581;-83
2021/04/04 02:23:29;;;;;;;14.18;5.43;;;4.20;99.90;;;;;;5033117;28;20177;-81
2021/04/04 02:25:55;;;;;;;25.55;8.07;;;4.10;99.90;;;;;;5032672;28;20197;-83
2021/04/04 02:28:22;;;;;;;19.45;6.03;;;4.10;99.90;;;;;;5033290;28;20212;-81
2021/04/04 02:30:48;;;;;;;13.57;5.80;;;4.20;99.90;;;;;;5033252;28;20189;-81
2021/04/04 02:33:31;;;;;;;14.32;6.13;;;4.20;99.90;;;;;;5031893;28;20202;-84
2021/04/04 02:36:05;;;;;;;20.60;6.18;;;4.20;99.90;;;;;;5032925;28;20667;-84
2021/04/04 02:38:38;;;;;;;21.38;7.03;;;4.30;99.90;;;;;;5031882;28;20581;-80
2021/04/04 02:41:06;;;;;;;14.00;5.53;;;4.40;99.90;;;;;;5032933;28;20170;-81
2021/04/04 02:43:34;;;;;;;21.08;7.20;;;4.50;99.90;;;;;;5033199;28;20170;-84
2021/04/04 02:46:04;;;;;;;20.80;5.55;;;4.60;99.90;;;;;;5032624;28;20198;-81
2021/04/04 02:48:52;;;;;;;15.70;6.10;;;4.40;99.90;;;;;;5033095;28;20245;-84
2021/04/04 02:51:23;;;;;;;17.27;5.50;;;4.40;99.90;;;;;;5033101;28;20165;-80
2021/04/04 02:53:52;;;;;;;22.45;6.78;;;4.40;99.90;;;;;;5032916;28;20205;-84
2021/04/04 02:56:20;;;;;;;17.63;6.00;;;4.20;99.90;;;;;;5031410;28;20567;-81
2021/04/04 02:58:48;;;;;;;20.10;6.50;;;4.20;99.90;;;;;;5031828;28;20583;-81
2021/04/04 03:01:16;;;;;;;20.60;6.45;;;4.30;99.90;;;;;;5032853;28;20177;-82
2021/04/04 03:03:44;;;;;;;18.85;5.32;;;4.30;99.90;;;;;;5031899;28;20596;-80
2021/04/04 03:06:10;;;;;;;22.80;5.70;;;4.30;99.90;;;;;;5014864;28;20266;-82
2021/04/04 03:08:40;;;;;;;12.13;5.78;;;4.40;99.90;;;;;;5033144;28;20212;-79
2021/04/04 03:11:07;;;;;;;17.10;6.10;;;4.50;99.90;;;;;;5032009;28;20640;-83
2021/04/04 03:13:34;;;;;;;16.70;5.53;;;4.40;99.90;;;;;;5031901;28;20205;-83
2021/04/04 03:16:00;;;;;;;16.88;4.93;;;4.40;99.90;;;;;;5032480;28;20721;-84
2021/04/04 03:18:26;;;;;;;24.45;5.95;;;4.40;99.90;;;;;;5032917;28;20175;-83
2021/04/04 03:20:53;;;;;;;20.45;6.57;;;4.40;99.90;;;;;;5032951;28;20495;-83
2021/04/04 03:23:20;;;;;;;20.33;6.72;;;4.50;99.90;;;;;;5032832;28;20184;-83
2021/04/04 03:25:47;;;;;;;21.98;5.55;;;4.40;99.90;;;;;;5032367;28;20597;-85
2021/04/04 03:28:16;;;;;;;21.83;6.22;;;4.30;99.90;;;;;;5032692;28;20252;-79
2021/04/04 03:30:45;;;;;;;15.40;6.07;;;4.30;99.90;;;;;;5032667;28;20529;-83
2021/04/04 03:33:16;;;;;;;36.30;7.85;;;4.30;99.90;;;;;;5032425;28;20252;-80
2021/04/04 03:35:44;;;;;;;19.98;6.43;;;4.40;99.90;;;;;;5033845;28;20198;-82
2021/04/04 03:38:10;;;;;;;14.48;5.93;;;4.30;99.90;;;;;;5036380;28;20213;-85
2021/04/04 03:40:36;;;;;;;20.90;5.90;;;4.30;99.90;;;;;;5036510;28;20579;-83
2021/04/04 03:43:06;;;;;;;21.83;6.32;;;4.30;99.90;;;;;;5035032;28;20194;-79
2021/04/04 03:45:32;;;;;;;21.70;5.82;;;4.50;99.90;;;;;;5035794;28;20197;-83
2021/04/04 03:47:58;;;;;;;24.30;6.35;;;4.50;99.90;;;;;;5035092;28;20190;-82
2021/04/04 03:50:24;;;;;;;17.52;6.00;;;4.60;99.90;;;;;;5034923;28;20373;-82
2021/04/04 03:52:52;;;;;;;27.50;6.78;;;4.50;99.90;;;;;;5034862;28;20197;-83
2021/04/04 03:55:21;;;;;;;24.52;7.22;;;4.60;99.90;;;;;;5034499;28;20308;-83
2021/04/04 03:57:48;;;;;;;13.05;7.20;;;4.60;99.90;;;;;;5035974;28;20253;-81
2021/04/04 04:00:18;;;;;;;23.27;6.80;;;4.50;99.90;;;;;;5034685;28;20228;-83
2021/04/04 04:02:45;;;;;;;18.30;6.35;;;4.60;99.90;;;;;;5034648;28;20181;-81
2021/04/04 04:05:12;;;;;;;13.25;5.30;;;4.70;99.90;;;;;;5034287;28;20181;-85
2021/04/04 04:07:39;;;;;;;26.35;6.30;;;4.60;99.90;;;;;;5036056;28;20178;-82
2021/04/04 04:10:07;;;;;;;24.10;6.32;;;4.50;99.90;;;;;;5034903;28;20191;-83
2021/04/04 04:12:34;;;;;;;19.00;6.18;;;4.50;99.90;;;;;;5035617;28;20638;-80
2021/04/04 04:15:00;;;;;;;20.42;6.97;;;4.50;99.90;;;;;;5034049;28;20542;-85
2021/04/04 04:17:27;;;;;;;17.95;5.25;;;4.60;99.90;;;;;;5034486;28;20189;-83
2021/04/04 04:19:53;;;;;;;20.52;6.15;;;4.50;99.90;;;;;;5034470;28;20196;-82
2021/04/04 04:22:21;;;;;;;18.98;5.43;;;4.60;99.90;;;;;;5035635;28;20170;-79
2021/04/04 04:24:51;;;;;;;23.13;5.60;;;4.60;99.90;;;;;;5035338;28;20201;-83
2021/04/04 04:27:18;;;;;;;23.00;6.57;;;4.60;99.90;;;;;;5034236;28;20198;-80
2021/04/04 04:29:50;;;;;;;19.23;5.78;;;4.60;99.90;;;;;;5035304;28;20182;-83
2021/04/04 04:32:18;;;;;;;18.77;6.80;;;4.50;99.90;;;;;;5034034;28;20283;-83
2021/04/04 04:34:45;;;;;;;12.10;5.55;;;4.40;99.90;;;;;;5035253;28;20223;-80
2021/04/04 04:37:15;;;;;;;21.40;6.57;;;4.50;99.90;;;;;;5034050;28;20572;-83
2021/04/04 04:39:42;;;;;;;25.10;6.20;;;4.60;99.90;;;;;;5035236;28;20209;-83
2021/04/04 04:42:12;;;;;;;24.77;6.05;;;4.50;99.90;;;;;;5033954;28;20257;-83
2021/04/04 04:44:43;;;;;;;14.32;5.93;;;4.50;99.90;;;;;;5034840;28;20189;-80
2021/04/04 04:47:12;;;;;;;23.83;6.78;;;4.50;99.90;;;;;;5033082;28;20204;-84
2021/04/04 04:49:42;;;;;;;17.02;5.88;;;4.30;99.90;;;;;;5035094;28;20272;-80
2021/04/04 04:52:07;;;;;;;19.40;6.68;;;4.30;99.90;;;;;;5034972;28;20186;-82
2021/04/04 04:54:33;;;;;;;20.30;6.07;;;4.30;99.90;;;;;;5034783;28;20212;-82
2021/04/04 04:57:00;;;;;;;21.83;5.80;;;4.40;99.90;;;;;;5033856;28;20198;-80
2021/04/04 04:59:27;;;;;;;14.25;6.68;;;4.40;99.90;;;;;;5033618;28;20227;-82
2021/04/04 05:01:53;;;;;;;21.60;7.20;;;4.50;99.90;;;;;;5033858;28;20180;-83
2021/04/04 05:04:20;;;;;;;16.08;6.25;;;4.50;99.90;;;;;;5034886;28;20170;-81
2021/04/04 05:06:49;;;;;;;21.17;6.80;;;4.40;99.90;;;;;;5034441;28;20197;-79
2021/04/04 05:09:17;;;;;;;12.57;5.68;;;4.30;99.90;;;;;;5034860;28;20526;-83
2021/04/04 05:11:47;;;;;;;14.32;6.15;;;4.30;99.90;;;;;;5034784;28;20201;-83
2021/04/04 05:14:14;;;;;;;14.52;6.15;;;4.30;99.90;;;;;;5034433;28;20205;-82
2021/04/04 05:16:40;;;;;;;19.13;6.25;;;4.30;99.90;;;;;;5034235;28;20220;-83
2021/04/04 05:19:10;;;;;;;17.98;6.50;;;4.40;99.90;;;;;;5034550;28;20186;-80
2021/04/04 05:21:38;;;;;;;14.18;6.75;;;4.50;99.90;;;;;;5033214;28;20277;-85
2021/04/04 05:24:08;;;;;;;16.50;6.70;;;4.50;99.90;;;;;;5034379;28;20177;-84
2021/04/04 05:26:38;;;;;;;23.92;7.07;;;4.40;99.90;;;;;;5034247;28;20201;-83
2021/04/04 05:29:06;;;;;;;17.98;6.57;;;4.40;99.90;;;;;;5034298;28;20186;-82
2021/04/04 05:31:32;;;;;;;24.83;7.53;;;4.50;99.90;;;;;;5034275;28;20300;-82
2021/04/04 05:34:00;;;;;;;22.92;8.23;;;4.60;99.90;;;;;;5032977;28;20229;-81
2021/04/04 05:36:26;;;;;;;15.57;6.95;;;4.50;99.90;;;;;;5033846;28;20225;-82
2021/04/04 05:38:58;;;;;;;15.40;6.15;;;4.60;99.90;;;;;;5034150;28;20170;-80
2021/04/04 05:41:26;;;;;;;20.88;7.93;;;4.60;99.90;;;;;;5034097;28;20174;-81
2021/04/04 05:43:57;;;;;;;19.13;7.15;;;4.60;99.90;;;;;;5034008;28;20185;-83
2021/04/04 05:46:30;;;;;;;18.45;7.55;;;4.70;99.90;;;;;;5033465;28;20290;-79
2021/04/04 05:49:15;;;;;;;20.15;6.53;;;4.70;99.90;;;;;;5033989;28;20174;-82
2021/04/04 05:52:13;;;;;;;18.50;7.70;;;4.60;99.90;;;;;;5033908;28;20170;-80
2021/04/04 05:55:13;;;;;;;22.52;6.00;;;4.70;99.90;;;;;;5017346;28;20228;-81
2021/04/04 05:57:52;;;;;;;19.85;6.55;;;4.70;99.90;;;;;;5033869;28;20253;-82
2021/04/04 06:00:19;;;;;;;13.65;6.43;;;4.70;99.90;;;;;;5032917;28;20351;-80
2021/04/04 06:03:15;;;;;;;25.27;7.40;;;4.70;99.90;;;;;;5033719;28;20276;-81
2021/04/04 06:05:59;;;;;;;13.38;5.30;;;4.60;99.90;;;;;;5033509;28;20597;-82
2021/04/04 06:08:59;;;;;;;20.50;6.55;;;4.70;99.90;;;;;;5033454;28;20677;-84
2021/04/04 06:11:49;;;;;;;18.92;5.80;;;4.70;99.90;;;;;;5032641;28;20577;-83
2021/04/04 06:14:23;;;;;;;15.60;5.18;;;4.80;99.90;;;;;;5033690;28;20210;-82
2021/04/04 06:17:02;;;;;;;24.50;6.55;;;4.80;99.90;;;;;;5033327;28;20214;-82
2021/04/04 06:19:51;;;;;;;14.85;5.13;;;4.70;99.90;;;;;;5033650;28;20657;-79
2021/04/04 06:22:44;;;;;;;30.02;7.70;;;4.70;99.90;;;;;;5033514;28;20163;-82
2021/04/04 06:25:41;;;;;;;15.52;5.53;;;4.90;99.90;;;;;;5031765;28;20186;-80
2021/04/04 06:28:24;;;;;;;11.20;6.15;;;5.10;99.90;;;;;;5016526;28;20198;-80
2021/04/04 06:31:03;;;;;;;28.00;6.15;;;5.10;99.90;;;;;;5033356;28;20270;-81
2021/04/04 06:33:37;;;;;;;15.23;6.10;;;5.10;99.90;;;;;;5033137;28;20244;-79
2021/04/04 06:36:21;;;;;;;19.70;6.70;;;5.20;99.90;;;;;;5032884;28;20675;-81
2021/04/04 06:39:04;;;;;;;18.63;6.97;;;5.20;99.90;;;;;;5033139;28;20178;-81
2021/04/04 06:41:36;;;;;;;16.02;6.20;;;5.30;99.90;;;;;;5031832;28;20224;-82
2021/04/04 06:44:25;;;;;;;28.67;6.80;;;5.30;99.90;;;;;;5033173;28;20589;-80
2021/04/04 06:47:24;;;;;;;21.98;7.57;;;5.30;99.90;;;;;;5032687;28;20197;-79
2021/04/04 06:49:57;;;;;;;18.52;6.03;;;5.20;99.90;;;;;;5033060;28;20178;-80
2021/04/04 06:52:48;;;;;;;15.48;6.70;;;5.30;99.90;;;;;;5033020;28;20170;-81
2021/04/04 06:55:35;;;;;;;16.30;5.80;;;5.40;99.90;;;;;;5032551;28;20591;-81
2021/04/04 06:58:21;;;;;;;23.67;6.13;;;5.40;99.90;;;;;;5033052;28;20516;-80
2021/04/04 07:01:24;;;;;;;20.40;6.22;;;5.40;99.90;;;;;;5032840;28;20170;-79
2021/04/04 07:03:57;;;;;;;13.63;6.80;;;5.60;99.90;;;;;;5033131;28;20287;-81
2021/04/04 07:06:25;;;;;;;18.15;6.80;;;5.50;99.90;;;;;;5032785;28;20182;-82
2021/04/04 07:09:30;;;;;;;16.60;6.85;;;5.50;99.90;;;;;;5032993;28;20181;-80
2021/04/04 07:12:11;;;;;;;30.10;6.53;;;5.60;99.90;;;;;;5035314;28;20184;-81
2021/04/04 07:15:02;;;;;;;16.38;6.75;;;5.60;99.90;;;;;;5036671;28;20197;-79
2021/04/04 07:18:07;;;;;;;29.50;7.53;;;5.70;99.90;;;;;;5036825;28;20197;-81
2021/04/04 07:20:43;;;;;;;19.95;5.70;;;5.70;99.90;;;;;;5036785;28;20170;-80
2021/04/04 07:23:49;;;;;;;18.60;5.30;;;5.60;99.90;;;;;;5036527;28;20177;-79
2021/04/04 07:26:35;;;;;;;16.50;4.70;;;5.70;99.90;;;;;;5036224;28;20197;-81
2021/04/04 07:29:28;;;;;;;18.83;6.57;;;5.70;99.90;;;;;;5036710;28;20205;-79
2021/04/04 07:32:16;;;;;;;19.90;5.30;;;5.80;99.90;;;;;;5036675;28;20552;-80
2021/04/04 07:35:02;;;;;;;18.90;5.22;;;5.80;99.90;;;;;;5034775;28;20204;-81
2021/04/04 07:37:43;;;;;;;16.27;5.57;;;5.80;99.90;;;;;;5036345;28;20178;-81
2021/04/04 07:40:22;;;;;;;9.50;5.43;;;5.80;99.90;;;;;;5036447;28;20167;-80
2021/04/04 07:43:02;;;;;;;16.65;5.45;;;5.90;99.90;;;;;;5036371;28;20174;-80
2021/04/04 07:45:51;;;;;;;12.55;5.38;;;5.70;99.90;;;;;;5035905;28;20190;-81
2021/04/04 07:48:34;;;;;;;14.40;4.82;;;5.70;99.90;;;;;;5034952;28;20544;-79
2021/04/04 07:51:22;;;;;;;15.05;4.97;;;5.80;99.90;;;;;;5036249;28;20173;-81
2021/04/04 07:53:56;;;;;;;19.83;5.00;;;5.60;99.90;;;;;;5036110;28;20595;-81
2021/04/04 07:56:33;;;;;;;14.32;5.72;;;5.80;99.90;;;;;;5034268;28;20250;-82
2021/04/04 07:59:19;;;;;;;13.95;6.22;;;5.90;99.90;;;;;;5036189;28;20290;-81
2021/04/04 08:02:03;;;;;;;16.90;4.85;;;5.90;99.90;;;;;;5035870;28;20257;-81
2021/04/04 08:04:53;;;;;;;19.40;5.30;;;5.90;99.90;;;;;;5036161;28;20206;-81
2021/04/04 08:07:29;;;;;;;14.15;4.38;;;6.00;99.90;;;;;;5018147;28;20208;-81
2021/04/04 08:10:04;;;;;;;10.10;4.63;;;5.80;99.90;;;;;;5035908;28;20174;-79
2021/04/04 08:12:38;;;;;;;20.05;5.97;;;6.00;99.90;;;;;;5035940;28;20185;-81
2021/04/04 08:15:10;;;;;;;17.30;5.88;;;6.10;99.90;;;;;;5035302;28;20178;-82
2021/04/04 08:17:35;;;;;;;11.80;5.38;;;6.00;99.90;;;;;;5034376;28;20178;-80
2021/04/04 08:20:10;;;;;;;16.53;4.50;;;6.10;99.90;;;;;;5035959;28;20185;-79
2021/04/04 08:22:40;;;;;;;16.88;4.18;;;6.30;99.90;;;;;;5034516;28;20166;-81
2021/04/04 08:25:21;;;;;;;12.27;4.13;;;6.30;99.90;;;;;;5035842;28;20158;-81
2021/04/04 08:27:55;;;;;;;13.73;5.05;;;6.30;99.90;;;;;;5035713;28;20716;-81
2021/04/04 08:30:28;;;;;;;16.65;6.80;;;6.30;99.90;;;;;;5035621;28;20181;-82
2021/04/04 08:33:01;;;;;;;11.27;5.22;;;6.40;99.90;;;;;;5035518;28;20654;-80
2021/04/04 08:35:34;;;;;;;17.58;5.53;;;6.60;99.90;;;;;;5034959;28;20276;-81
2021/04/04 08:38:13;;;;;;;22.20;5.15;;;6.60;99.90;;;;;;5035379;28;20589;-81
2021/04/04 08:40:40;;;;;;;12.82;5.50;;;6.30;99.90;;;;;;5035430;28;20534;-82
2021/04/04 08:43:06;;;;;;;12.10;4.05;;;6.40;99.90;;;;;;5034066;28;20178;-80
2021/04/04 08:45:45;;;;;;;10.50;4.35;;;6.40;99.90;;;;;;5034717;28;21035;-80
2021/04/04 08:48:14;;;;;;;12.63;7.43;;;6.40;99.90;;;;;;5035545;28;20503;-83
2021/04/04 08:50:45;;;;;;;19.20;4.85;;;6.40;99.90;;;;;;5035117;28;20174;-80
2021/04/04 08:53:29;;;;;;;11.65;4.65;;;6.10;99.90;;;;;;5035057;28;20186;-79
2021/04/04 08:55:55;;;;;;;16.83;4.55;;;6.30;99.90;;;;;;5033250;28;20273;-82
2021/04/04 08:58:30;;;;;;;16.80;4.47;;;6.40;99.90;;;;;;5034967;28;20158;-83
2021/04/04 09:01:02;;;;;;;9.30;4.95;;;6.60;99.90;;;;;;5034968;28;20409;-79
2021/04/04 09:03:29;;;;;;;7.85;4.15;;;6.50;99.90;;;;;;5035058;28;20201;-82
2021/04/04 09:06:01;;;;;;;15.48;4.30;;;6.60;99.90;;;;;;5034184;28;20253;-82
2021/04/04 09:08:27;;;;;;;15.15;4.50;;;6.40;99.90;;;;;;5034566;28;20185;-80
2021/04/04 09:10:53;;;;;;;10.20;4.57;;;6.20;99.90;;;;;;5034592;28;20208;-80
2021/04/04 09:13:20;;;;;;;13.30;4.40;;;6.40;99.90;;;;;;5034525;28;20194;-80
2021/04/04 09:15:50;;;;;;;9.45;3.80;;;6.20;99.90;;;;;;5034091;28;20572;-83
2021/04/04 09:18:17;;;;;;;11.07;3.53;;;6.20;99.90;;;;;;5034577;28;20219;-80
2021/04/04 09:20:44;;;;;;;7.80;3.80;;;6.20;99.90;;;;;;5034486;28;20175;-80
2021/04/04 09:23:15;;;;;;;12.48;4.50;;;6.40;99.90;;;;;;5033178;28;20193;-83
2021/04/04 09:26:01;;;;;;;11.38;4.20;;;6.40;99.90;;;;;;5032830;28;20311;-81
2021/04/04 09:28:29;;;;;;;9.75;3.85;;;6.50;99.90;;;;;;5034332;28;20185;-80
2021/04/04 09:30:59;;;;;;;14.68;4.05;;;6.40;99.90;;;;;;5034414;28;20185;-80
2021/04/04 09:33:30;;;;;;;12.35;5.18;;;6.60;99.90;;;;;;5033997;28;20241;-80
2021/04/04 09:35:57;;;;;;;12.52;6.10;;;6.70;99.90;;;;;;5031917;28;20207;-81
2021/04/04 09:38:30;;;;;;;11.45;5.15;;;6.80;99.90;;;;;;5030942;28;20189;-80
2021/04/04 09:40:56;;;;;;;14.93;5.50;;;6.60;99.90;;;;;;5033975;28;20181;-80
2021/04/04 09:43:24;;;;;;;16.13;5.38;;;6.50;99.90;;;;;;5033913;28;20227;-83
2021/04/04 09:45:50;;;;;;;12.05;4.38;;;6.50;99.90;;;;;;5033731;28;20564;-80
2021/04/04 09:48:26;;;;;;;10.33;4.53;;;6.50;99.90;;;;;;5033921;28;20190;-83
2021/04/04 09:51:12;;;;;;;9.23;4.32;;;6.30;99.90;;;;;;5032843;28;20162;-80
2021/04/04 09:53:52;;;;;;;8.73;3.92;;;6.50;99.90;;;;;;5033754;28;20670;-81
2021/04/04 09:56:31;;;;;;;13.98;5.13;;;6.60;99.90;;;;;;5032180;28;20684;-80
2021/04/04 09:58:58;;;;;;;13.90;4.80;;;6.60;99.90;;;;;;5016093;28;20177;-80
2021/04/04 10:01:26;;;;;;;14.35;4.50;;;6.60;99.90;;;;;;5033944;28;20170;-79
2021/04/04 10:03:54;;;;;;;16.05;6.10;;;6.40;99.90;;;;;;5033761;28;20182;-83
2021/04/04 10:06:20;;;;;;;10.75;4.63;;;6.60;99.90;;;;;;5033117;28;20197;-81
2021/04/04 10:08:54;;;;;;;9.17;4.90;;;6.60;99.90;;;;;;5032427;28;20186;-82
2021/04/04 10:11:21;;;;;;;8.27;4.82;;;6.60;99.90;;;;;;5033706;28;20252;-82
2021/04/04 10:13:47;;;;;;;6.22;4.75;;;6.60;99.90;;;;;;5033649;28;20234;-81
2021/04/04 10:16:22;;;;;;;10.40;4.90;;;6.60;99.90;;;;;;5031357;28;20331;-82
2021/04/04 10:19:05;;;;;;;18.08;6.72;;;6.70;99.90;;;;;;5041359;28;20190;-81
2021/04/04 10:21:37;;;;;;;13.98;5.25;;;6.70;99.90;;;;;;5036137;28;20178;-82
2021/04/04 10:24:32;;;;;;;10.07;5.80;;;6.70;99.90;;;;;;5032374;28;20177;-83
2021/04/04 10:27:16;;;;;;;17.13;6.93;;;6.70;99.90;;;;;;5033429;28;20189;-81
2021/04/04 10:29:42;;;;;;;12.55;5.80;;;6.80;99.90;;;;;;5033408;28;20309;-82
2021/04/04 10:32:08;;;;;;;12.67;5.23;;;6.80;99.90;;;;;;5032153;28;20663;-80
2021/04/04 10:34:45;;;;;;;17.10;6.67;;;6.80;99.90;;;;;;5032883;28;20836;-80
2021/04/04 10:37:11;;;;;;;11.27;5.18;;;6.80;99.90;;;;;;5031526;28;20606;-82
2021/04/04 10:39:37;;;;;;;11.65;6.20;;;6.80;99.90;;;;;;5029175;28;20631;-83
2021/04/04 10:42:16;;;;;;;14.13;5.15;;;6.70;99.90;;;;;;5028901;28;20665;-82
2021/04/04 10:44:42;;;;;;;12.80;4.82;;;6.80;99.90;;;;;;5030165;28;20178;-83
2021/04/04 10:47:22;;;;;;;14.07;6.57;;;6.90;99.90;;;;;;5032800;28;20192;-83
2021/04/04 10:49:49;;;;;;;18.13;6.60;;;6.90;99.90;;;;;;5026384;28;20505;-79
2021/04/04 10:52:15;;;;;;;14.75;6.30;;;7.20;99.90;;;;;;5031631;28;20269;-81
2021/04/04 10:54:42;;;;;;;11.10;5.55;;;7.00;99.90;;;;;;5032332;28;20194;-80
2021/04/04 10:57:09;;;;;;;9.05;5.20;;;7.00;99.90;;;;;;5031033;28;20225;-80
2021/04/04 10:59:35;;;;;;;9.75;4.93;;;7.20;99.90;;;;;;5021988;28;20179;-80
2021/04/04 11:02:02;;;;;;;11.00;5.40;;;7.20;99.90;;;;;;5032409;28;20200;-82
2021/04/04 11:04:32;;;;;;;10.88;5.70;;;7.30;99.90;;;;;;5032918;28;20185;-81
2021/04/04 11:07:01;;;;;;;13.38;5.15;;;7.20;99.90;;;;;;5032784;28;20267;-80
2021/04/04 11:09:27;;;;;;;13.48;5.65;;;7.40;99.90;;;;;;5033014;28;20241;-81
2021/04/04 11:11:55;;;;;;;16.75;5.78;;;7.20;99.90;;;;;;5033218;28;20494;-82
2021/04/04 11:14:23;;;;;;;11.02;4.93;;;7.40;99.90;;;;;;5033093;28;20300;-80
2021/04/04 11:16:53;;;;;;;13.32;5.65;;;7.30;99.90;;;;;;5032564;28;20678;-82
2021/04/04 11:19:21;;;;;;;8.80;4.82;;;7.20;99.90;;;;;;5032892;28;20182;-81
2021/04/04 11:21:48;;;;;;;10.55;5.47;;;7.10;99.90;;;;;;5032741;28;20240;-81
2021/04/04 11:24:14;;;;;;;13.10;4.47;;;7.10;99.90;;;;;;5031735;28;20233;-80
2021/04/04 11:27:03;;;;;;;10.18;4.72;;;7.10;99.90;;;;;;5032540;28;20207;-79
2021/04/04 11:29:29;;;;;;;13.93;5.95;;;6.90;99.90;;;;;;5032941;28;20170;-80
2021/04/04 11:31:57;;;;;;;11.80;5.70;;;7.20;99.90;;;;;;5031432;28;20194;-80
2021/04/04 11:34:31;;;;;;;12.07;6.82;;;7.40;99.90;;;;;;5032601;28;20461;-80
2021/04/04 11:37:00;;;;;;;12.52;5.55;;;7.50;99.90;;;;;;5032830;28;20686;-81
2021/04/04 11:39:27;;;;;;;10.65;5.80;;;7.50;99.90;;;;;;5032901;28;20166;-81
2021/04/04 11:41:57;;;;;;;12.60;5.45;;;7.50;99.90;;;;;;5032877;28;20589;-81
2021/04/04 11:44:32;;;;;;;16.92;6.10;;;7.60;99.90;;;;;;5032576;28;20195;-81
2021/04/04 11:47:04;;;;;;;15.45;5.80;;;7.50;99.90;;;;;;5032592;28;20216;-81
2021/04/04 11:49:47;;;;;;;11.82;5.07;;;7.40;99.90;;;;;;5031238;28;20182;-80
2021/04/04 11:52:15;;;;;;;16.33;5.13;;;7.60;99.90;;;;;;5032536;28;20154;-80
2021/04/04 11:54:41;;;;;;;16.27;5.63;;;7.60;99.90;;;;;;5032113;28;20206;-81
2021/04/04 11:57:07;;;;;;;10.60;5.13;;;7.80;99.90;;;;;;5027627;28;20202;-79
2021/04/04 11:59:33;;;;;;;11.80;5.90;;;7.90;99.90;;;;;;5032115;28;20185;-81
2021/04/04 12:01:59;;;;;;;8.20;5.03;;;8.00;99.90;;;;;;5035781;28;20261;-82
2021/04/04 12:04:31;;;;;;;11.83;5.77;;;7.90;99.90;;;;;;5035627;28;20425;-80
2021/04/04 12:07:07;;;;;;;14.80;6.35;;;7.90;99.90;;;;;;5034750;28;20674;-81
2021/04/04 12:09:34;;;;;;;11.52;5.25;;;7.90;99.90;;;;;;5035739;28;20253;-81
2021/04/04 12:12:00;;;;;;;21.00;6.00;;;7.90;99.90;;;;;;5034618;28;20550;-81
2021/04/04 12:14:26;;;;;;;12.50;5.55;;;7.90;99.90;;;;;;5034507;28;20212;-81
2021/04/04 12:16:52;;;;;;;10.30;5.17;;;7.90;99.90;;;;;;5034221;28;20301;-81
2021/04/04 12:19:28;;;;;;;11.47;5.20;;;7.80;99.90;;;;;;5035630;28;20178;-81
2021/04/04 12:21:56;;;;;;;9.32;5.38;;;7.80;99.90;;;;;;5035734;28;20531;-80
2021/04/04 12:24:45;;;;;;;8.98;5.30;;;7.70;99.90;;;;;;5034458;28;20185;-82
2021/04/04 12:27:12;;;;;;;9.82;5.65;;;7.60;99.90;;;;;;5034150;28;20194;-82
2021/04/04 12:29:50;;;;;;;11.05;5.10;;;7.80;99.90;;;;;;5035438;28;20206;-80
2021/04/04 12:32:23;;;;;;;12.55;5.22;;;8.00;99.90;;;;;;5035417;28;20186;-80
2021/04/04 12:34:51;;;;;;;15.73;5.60;;;7.90;99.90;;;;;;5035070;28;20205;-81
2021/04/04 12:37:19;;;;;;;11.93;5.68;;;8.10;99.90;;;;;;5034121;28;20194;-80
2021/04/04 12:39:45;;;;;;;9.18;5.35;;;8.10;99.90;;;;;;5035463;28;20245;-81
2021/04/04 12:42:17;;;;;;;6.10;4.65;;;7.90;99.90;;;;;;5035400;28;20174;-80
2021/04/04 12:44:45;;;;;;;14.95;5.25;;;8.00;99.90;;;;;;5035059;28;20178;-82
2021/04/04 12:47:14;;;;;;;11.35;5.25;;;8.00;99.90;;;;;;5033827;28;20222;-79
2021/04/04 12:49:51;;;;;;;11.57;6.13;;;8.10;99.90;;;;;;5035063;28;20261;-81
2021/04/04 12:52:33;;;;;;;11.52;4.95;;;8.10;99.90;;;;;;5035133;28;20166;-81
2021/04/04 12:55:12;;;;;;;11.18;6.00;;;8.10;99.90;;;;;;5033307;28;20271;-80
2021/04/04 12:57:39;;;;;;;14.88;5.50;;;8.00;99.90;;;;;;5035055;28;20178;-81
2021/04/04 13:00:12;;;;;;;11.27;4.60;;;8.20;99.90;;;;;;5034965;28;20171;-81
2021/04/04 13:02:37;;;;;;;9.88;4.93;;;8.10;99.90;;;;;;5034810;28;20171;-80
2021/04/04 13:05:04;;;;;;;10.10;4.93;;;8.20;99.90;;;;;;5034560;28;20193;-81
2021/04/04 13:07:29;;;;;;;10.20;5.45;;;8.20;99.90;;;;;;5034399;28;20324;-80
2021/04/04 13:09:55;;;;;;;11.73;5.83;;;8.20;99.90;;;;;;5034317;28;20257;-82
2021/04/04 13:12:20;;;;;;;10.40;4.97;;;8.30;99.90;;;;;;5034781;28;20182;-80